Pagrindinis puslapis
METAR-TAF:

METAR-TAF

Oro uostai :

Niamėjus, Nigeris

platuma: 13-29N, ilguma: 002-10E, Aukštis: 223 m

Dabartinis oras

Ataskaita buvo paskelbta 1 valandą ir 13 minutes, ne 00:00 UTC
Vėjas 8 kt iš Pietų/Pietvakarių
Temperatūra 34°C
Drėgmė 41%
Slėgis 1010 hPa
Matomumas 10 km arba daugiau
nėra debesų žemiau 1500 m ir nėra kamuolinių lietaus debesų

METAR: DRRN 050000Z 21008KT CAVOK 34/19 Q1010 NOSIG

Laikas: 02:13 (01:13 UTC)

Prognozė

Ataskaita buvo paskelbta 2 valandos ir 13 minutes, ne 23:00 UTC
Prognozė galioja nuo 05 metu 00 UTC su 06 metu 06 UTC
Vėjas 10 kt iš Pietvakarių
Matomumas 10 km arba daugiau
nėra debesų žemiau 1500 m ir nėra kamuolinių lietaus debesų
Tikimybė 40% :
Laikinai
nuo 05 metu 10 UTC su 05 metu 16 UTC
Vėjas 25 kt iš Rytų su gūsio iki 45 kt
Matomumas: 0300 m
Su prošvaistėmis ne aukštis 2000 ft
Mažai debesys ne aukštis 3300 ft, Liūtiniai kamuoliniai debesys.
škvalai, Dulkes pustymas, perkūnija, lietus

TAF: DRRN 042300Z 0500/0606 22010KT CAVOK PROB40 TEMPO 0510/0516 10025G45KT 0300 SQ BLDU TSRA BKN020 FEW033CB

Orai ataskaitas ir orų prognozės (METAR, TAF).

turimą stotys yra geltonos ir raudonos taškus žemėlapyje.

Perkelti pele per norėdami pamatyti stoties vardą.

Tada spustelėkite, norėdami matyti oro stebėjimo ir prognozės.

Norėdami pakeisti žemėlapį: spustelėkite ant žalios mygtukų su juodo kryžiaus žemyn,; žalią mygtuką su brūkšneliu, jei norite nutolinti; arba žalių rodyklių gretimoms žemėlapius.


METAR-TAF: